createdAt,value
2022-09-23T00:02:18.288Z,9.57
2022-09-23T00:08:20.256Z,9.63
2022-09-23T00:14:22.265Z,9.77
2022-09-23T00:20:25.240Z,9.37
2022-09-23T00:26:30.407Z,9.41
2022-09-23T00:32:33.515Z,9.36
2022-09-23T00:38:35.435Z,9.35
2022-09-23T00:44:55.338Z,9.19
2022-09-23T00:50:57.328Z,9.52
2022-09-23T00:57:00.900Z,9.23
2022-09-23T01:03:05.073Z,9.51
2022-09-23T01:09:07.577Z,9.14
2022-09-23T01:15:38.290Z,9.11
2022-09-23T01:22:09.297Z,8.94
2022-09-23T01:28:33.357Z,8.93
2022-09-23T01:34:46.016Z,8.97
2022-09-23T01:48:04.539Z,8.56
2022-09-23T01:54:38.807Z,8.52
2022-09-23T02:00:59.836Z,8.51
2022-09-23T02:07:15.204Z,8.37
2022-09-23T02:13:30.161Z,8.33
2022-09-23T02:19:54.152Z,8.27
2022-09-23T02:26:08.661Z,8.11
2022-09-23T02:32:34.945Z,8.13
2022-09-23T02:38:57.531Z,8.14
2022-09-23T02:44:59.437Z,8.08
2022-09-23T02:51:03.618Z,8.08
2022-09-23T02:57:29.005Z,8.10
2022-09-23T03:04:09.323Z,8.02
2022-09-23T03:10:30.165Z,7.95
2022-09-23T03:16:56.245Z,7.88
2022-09-23T03:23:15.409Z,7.89
2022-09-23T03:29:19.659Z,7.87
2022-09-23T03:35:38.944Z,7.83
2022-09-23T03:42:05.675Z,7.79
2022-09-23T03:48:10.044Z,7.74
2022-09-23T03:54:15.011Z,7.71
2022-09-23T04:00:27.528Z,7.55
2022-09-23T04:06:29.392Z,7.62
2022-09-23T04:12:31.588Z,7.61
2022-09-23T04:18:33.561Z,7.63
2022-09-23T04:24:35.746Z,7.52
2022-09-23T04:30:43.761Z,7.42
2022-09-23T04:36:46.887Z,7.49
2022-09-23T04:42:50.331Z,7.48
2022-09-23T04:48:52.471Z,7.54
2022-09-23T04:54:54.375Z,7.63
2022-09-23T05:01:01.731Z,7.74
2022-09-23T05:07:06.344Z,7.85
2022-09-23T05:13:09.103Z,7.82
2022-09-23T05:19:13.557Z,7.88
2022-09-23T05:25:15.612Z,7.95
2022-09-23T05:31:21.050Z,8.01
2022-09-23T05:37:23.345Z,7.96
2022-09-23T05:43:26.238Z,8.01
2022-09-23T05:49:48.226Z,8.24
2022-09-23T05:55:50.109Z,8.30
2022-09-23T06:01:55.773Z,8.42
2022-09-23T06:07:58.974Z,8.77
2022-09-23T06:14:02.373Z,8.78
2022-09-23T06:20:04.721Z,9.06
2022-09-23T06:26:33.708Z,9.47
2022-09-23T06:32:35.787Z,11.20
2022-09-23T06:38:44.726Z,15.58
2022-09-23T06:44:46.572Z,14.71
2022-09-23T06:50:49.389Z,14.30
2022-09-23T06:56:51.781Z,13.96
2022-09-23T07:02:54.901Z,12.95
2022-09-23T07:08:56.880Z,12.65
2022-09-23T07:14:59.122Z,13.39
2022-09-23T07:21:16.945Z,13.42
2022-09-23T07:27:19.994Z,12.97
2022-09-23T07:33:31.666Z,12.72
2022-09-23T07:39:34.860Z,12.67
2022-09-23T07:45:38.912Z,12.78
2022-09-23T07:51:42.906Z,13.00
2022-09-23T07:57:44.809Z,13.18
2022-09-23T08:03:50.698Z,13.84
2022-09-23T08:09:52.600Z,14.14
2022-09-23T08:15:55.666Z,14.68
2022-09-23T08:21:58.097Z,15.94
2022-09-23T08:27:59.983Z,17.02
2022-09-23T08:34:02.364Z,18.31
2022-09-23T08:40:05.047Z,20.29
2022-09-23T08:46:15.210Z,23.03
2022-09-23T08:52:49.461Z,25.81
2022-09-23T08:59:36.036Z,26.75
2022-09-23T09:05:41.779Z,26.30
2022-09-23T09:11:49.302Z,25.75
2022-09-23T09:18:12.250Z,26.62
2022-09-23T09:24:35.130Z,27.83
2022-09-23T09:30:37.457Z,28.74
2022-09-23T09:37:44.973Z,30.00
2022-09-23T09:43:56.936Z,29.92
2022-09-23T09:50:07.081Z,29.92
2022-09-23T09:56:12.843Z,30.49
2022-09-23T10:02:36.963Z,30.46
2022-09-23T10:08:38.871Z,30.68
2022-09-23T10:14:41.132Z,31.50
2022-09-23T10:20:43.061Z,32.05
2022-09-23T10:27:04.361Z,32.31
2022-09-23T10:33:27.839Z,33.39
2022-09-23T10:39:48.519Z,32.81
2022-09-23T10:46:16.539Z,30.30
2022-09-23T10:52:31.918Z,30.61
2022-09-23T10:59:30.256Z,29.71
2022-09-23T11:06:15.142Z,29.82
2022-09-23T11:12:48.090Z,29.69
2022-09-23T11:19:14.876Z,25.21
2022-09-23T11:25:39.031Z,24.33
2022-09-23T11:31:43.613Z,26.26
2022-09-23T11:37:52.067Z,26.18
2022-09-23T11:44:21.458Z,26.27
2022-09-23T11:50:46.553Z,24.06
2022-09-23T11:57:28.797Z,23.99
2022-09-23T12:04:24.380Z,25.13
2022-09-23T12:10:55.518Z,26.31
2022-09-23T12:17:36.395Z,27.16
2022-09-23T12:24:03.161Z,26.37
2022-09-23T12:30:20.884Z,25.70
2022-09-23T12:36:42.728Z,26.22
2022-09-23T12:42:47.046Z,26.88
2022-09-23T12:48:57.986Z,27.50
2022-09-23T12:55:22.102Z,26.94
2022-09-23T13:01:26.808Z,26.23
2022-09-23T13:07:33.989Z,24.90
2022-09-23T13:13:44.185Z,23.96
2022-09-23T13:19:46.601Z,23.25
2022-09-23T13:25:51.527Z,22.31
2022-09-23T13:31:57.850Z,22.03
2022-09-23T13:38:08.833Z,21.98
2022-09-23T13:44:20.152Z,21.88
2022-09-23T13:50:23.888Z,22.07
2022-09-23T13:56:33.820Z,22.92
2022-09-23T14:02:43.208Z,23.50
2022-09-23T14:08:49.802Z,24.45
2022-09-23T14:14:52.581Z,25.80
2022-09-23T14:20:54.570Z,27.15
2022-09-23T14:27:04.009Z,27.64
2022-09-23T14:33:23.553Z,28.84
2022-09-23T14:39:25.526Z,27.53
2022-09-23T14:45:37.984Z,27.70
2022-09-23T14:51:54.723Z,25.09
2022-09-23T14:58:06.028Z,25.53
2022-09-23T15:04:23.006Z,24.65
2022-09-23T15:10:36.851Z,24.21
2022-09-23T15:16:40.106Z,24.89
2022-09-23T15:22:50.233Z,25.73
2022-09-23T15:28:56.014Z,24.30
2022-09-23T15:34:57.952Z,23.07
2022-09-23T15:40:59.919Z,22.09
2022-09-23T15:47:02.232Z,21.46
2022-09-23T15:53:06.219Z,20.55
2022-09-23T15:59:08.367Z,19.58
2022-09-23T16:05:46.835Z,18.57
2022-09-23T16:11:51.909Z,18.46
2022-09-23T16:17:54.675Z,17.93
2022-09-23T16:23:59.205Z,17.34
2022-09-23T16:30:01.236Z,17.14
2022-09-23T16:36:03.459Z,16.95
2022-09-23T16:42:05.398Z,16.79
2022-09-23T16:48:07.385Z,16.61
2022-09-23T16:54:13.147Z,16.32
2022-09-23T17:00:35.103Z,16.38
2022-09-23T17:07:01.419Z,16.03
2022-09-23T17:14:15.709Z,15.86
2022-09-23T17:26:50.680Z,15.84
2022-09-23T17:32:57.196Z,15.39
2022-09-23T17:38:59.113Z,15.06
2022-09-23T17:45:02.198Z,15.14
2022-09-23T17:51:07.339Z,15.15
2022-09-23T18:03:39.626Z,15.07
2022-09-23T18:09:43.993Z,15.25
2022-09-23T18:15:45.875Z,15.20
2022-09-23T18:21:57.213Z,15.00
2022-09-23T18:28:04.098Z,14.94
2022-09-23T18:34:11.467Z,15.02
2022-09-23T18:46:47.557Z,14.94
2022-09-23T18:52:49.576Z,14.96
2022-09-23T18:58:54.501Z,14.89
2022-09-23T19:04:56.707Z,14.75
2022-09-23T19:11:02.899Z,14.66
2022-09-23T19:17:05.203Z,14.60
2022-09-23T19:23:07.167Z,14.44
2022-09-23T19:29:15.053Z,14.36
2022-09-23T19:35:16.981Z,14.26
2022-09-23T19:41:20.051Z,14.31
2022-09-23T19:47:22.018Z,14.28
2022-09-23T19:53:28.001Z,14.18
2022-09-23T19:59:30.306Z,14.14
2022-09-23T20:05:32.318Z,14.15
2022-09-23T20:11:34.587Z,14.08
2022-09-23T20:17:36.516Z,14.24
2022-09-23T20:23:54.187Z,14.04
2022-09-23T20:36:24.165Z,14.16
2022-09-23T20:42:26.787Z,14.04
2022-09-23T20:48:29.817Z,14.08
2022-09-23T20:54:41.687Z,13.95
2022-09-23T21:00:44.563Z,13.87
2022-09-23T21:06:46.496Z,13.85
2022-09-23T21:12:50.378Z,13.91
2022-09-23T21:18:52.917Z,13.80
2022-09-23T21:25:26.445Z,13.76
2022-09-23T21:31:27.555Z,13.57
2022-09-23T21:37:29.538Z,13.63
2022-09-23T21:43:34.775Z,13.61
2022-09-23T21:49:36.741Z,13.61
2022-09-23T21:55:38.671Z,13.58
2022-09-23T22:01:44.862Z,13.60
2022-09-23T22:07:47.023Z,13.60
2022-09-23T22:13:48.918Z,13.48
2022-09-23T22:19:51.229Z,13.46
2022-09-23T22:26:02.825Z,13.43
2022-09-23T22:32:29.315Z,13.39
2022-09-23T22:38:31.243Z,13.33
2022-09-23T22:44:33.174Z,13.31
2022-09-23T22:50:39.671Z,13.29
2022-09-23T22:56:41.851Z,13.16
2022-09-23T23:02:43.779Z,13.13
2022-09-23T23:08:46.011Z,13.20
2022-09-23T23:14:49.373Z,13.25
2022-09-23T23:20:51.466Z,13.16
2022-09-23T23:26:53.554Z,13.16
2022-09-23T23:32:55.448Z,13.09
2022-09-23T23:38:57.892Z,13.09
2022-09-23T23:44:59.846Z,12.85
2022-09-23T23:51:05.745Z,12.87
2022-09-23T23:57:07.815Z,12.88
